Terminal Aerodrome Forecast
Issued by NWS Sterling, VA

Current Version | Previous Version | Text Only | Print | Product List | Glossary On
Versions: 1 2 3 4 5 6 7 8 9 10 11 12 13 14 15 16 17 18 19 20 21 22 23 24 25
936
FTUS41 KLWX 162034 AAA
TAFDCA
TAF AMD
KDCA 162034Z 1621/1724 20011G18KT P6SM SCT100
     FM170000 23006KT P6SM FEW140 FEW250
     FM170900 00000KT P6SM FEW060 FEW250
     FM171700 16004KT P6SM SCT060 BKN250=

USA.gov is the U.S. government's official web portal to all federal, state and local government web resources and services.